Warwick, RI

9:45 AM EDT on October 21, 2014 (GMT -0400)
Green State | Change Station
CLOSE
Current Station
Airport
Location: Providence,
Elevation: 62 ft
Nearby Weather Stations

Elev 62 ft 41.72 °N, 71.43 °W | Updated 54 minutes ago

Fog
Fog
52 °F
Feels Like 52 °F
N
6
Wind Variable Wind from North

Today
High -- | Low -- °F
--% Chance of Precip.
Yesterday
High -- | Low -- °F
Precip. -- in
7:04 AM 5:55 PM
Waning Crescent, 5% visible
Pressure 29.97 in
Visibility 7.0 miles
Clouds Few 2200 ft
Mostly Cloudy 3300 ft
Mostly Cloudy 7000 ft
Mostly Cloudy 25000 ft
Dew Point 50 °F
Humidity 93%
Rainfall 0.05 in
Snow Depth Not available.
UV 1 out of 12
Pollen .30 out of 12
Ozone Good
PM2.5 Good
Flu Activity No Activity
METAR KPVD 211251Z 35005KT 7SM BCFG FEW022 BKN033 BKN070 BKN250 11/10 A2997 RMK AO2 SLP148 BCFG SW T01110100

More Conditions Fewer Conditions

Pressure 29.97 in
Visibility 7.0 miles
Clouds Few 2200 ft
Mostly Cloudy 3300 ft
Mostly Cloudy 7000 ft
Mostly Cloudy 25000 ft
Dew Point 50 °F
Humidity 93%
Rainfall 0.05 in
Snow Depth Not available.
UV 1 out of 12
Pollen .30 out of 12
Ozone Good
PM2.5 Good
Flu Activity No Activity
METAR KPVD 211251Z 35005KT 7SM BCFG FEW022 BKN033 BKN070 BKN250 11/10 A2997 RMK AO2 SLP148 BCFG SW T01110100

More Conditions Fewer Conditions

10-Day Weather Forecast

Almanac

Astronomy

Oct. 21, 2014 Rise Set
Actual Time 7:04 AM EDT 5:55 PM EDT
Civil Twilight 6:36 AM EDT 6:23 PM EDT
Nautical Twilight 6:04 AM EDT 6:55 PM EDT
Astronomical Twilight 5:31 AM EDT 7:28 PM EDT
Moon 4:44 AM EDT 4:49 PM EDT
Length of Visible Light 11h 47m
Length of Day
10h 50m
Tomorrow will be 2m 39s shorter.
Waning Crescent, 5% of the Moon is Illuminated
Today
Waning Crescent
Oct 23
New
Oct 30
First Quarter
Nov 6
Full
Nov 14
Last Quarter

Today's Extremes

State Highs State Lows

Community

WunderPhotos

Upload Photos

1,763,662 photos uploaded!

Nearby

Air Quality

  Air Quality AQ Index Pollutant
Yesterday Good
OZONE
Yesterday Good
PM2.5
Current Good
PM2.5
Current Good
OZONE
Tuesday Good
OZONE
Tuesday Good
PM2.5
Wednesday Good
OZONE
Wednesday Good
PM2.5
Thursday Good
OZONE
Thursday Good
PM2.5
Friday Good
OZONE
Friday Good
PM2.5

Snow Depth

Station Depth Elevation
No new snow has been reported.

Earthquake Activity

City Distance Mag. Time & Date
No recent earthquake activity has been reported nearby.
Minimum magnitude displayed is 2.5.

Coastal Water Temperatures

Place Temperature
Newport, RI 61.0 °F
Quonset Point, RI 62.1 °F
Conimicut Light, RI 61.0 °F

Nearby Weather Stations